Time;durP1;ratioP1;P1;durP2;ratioP2;P2;SDS_P1;SDS_P2;PMS_P1;PMS_P2;Temp;Humidity;BMP_temperature;BMP_pressure;BME280_temperature;BME280_humidity;BME280_pressure;Samples;Min_cycle;Max_cycle;Signal;HPM_P1;HPM_P2
2022/07/18 00:02:00;;;;;;;4.90;2.20;;;20.70;56.10;;;;;;6014234;23;20459;-80
2022/07/18 00:04:27;;;;;;;2.10;1.90;;;20.70;56.20;;;;;;6024443;23;20473;-80
2022/07/18 00:06:54;;;;;;;2.50;2.30;;;20.60;56.20;;;;;;6024358;23;20471;-80
2022/07/18 00:09:23;;;;;;;2.67;2.00;;;20.60;56.50;;;;;;6026365;23;20502;-80
2022/07/18 00:11:50;;;;;;;2.43;2.07;;;20.60;55.40;;;;;;6025244;23;20544;-80
2022/07/18 00:14:19;;;;;;;6.43;2.30;;;20.60;55.20;;;;;;6016582;23;20464;-80
2022/07/18 00:16:46;;;;;;;4.70;2.33;;;20.60;55.80;;;;;;6022885;23;20433;-80
2022/07/18 00:19:14;;;;;;;2.07;1.87;;;20.60;56.50;;;;;;6025296;23;20452;-80
2022/07/18 00:21:41;;;;;;;2.13;1.93;;;20.60;56.70;;;;;;6033806;23;20448;-80
2022/07/18 00:24:08;;;;;;;2.30;2.10;;;20.60;57.10;;;;;;6018242;23;20947;-80
2022/07/18 00:26:35;;;;;;;2.10;1.90;;;20.50;57.40;;;;;;6031590;23;20476;-80
2022/07/18 00:29:02;;;;;;;2.27;1.70;;;20.40;57.60;;;;;;6034469;23;20443;-80
2022/07/18 00:31:30;;;;;;;3.63;2.13;;;20.40;57.40;;;;;;6021831;23;20475;-80
2022/07/18 00:33:57;;;;;;;1.80;1.70;;;20.30;57.40;;;;;;6024399;23;20536;-80
2022/07/18 00:36:25;;;;;;;2.47;2.00;;;20.30;57.50;;;;;;6022034;23;20451;-80
2022/07/18 00:38:52;;;;;;;1.90;1.80;;;20.30;56.40;;;;;;6014919;23;20451;-80
2022/07/18 00:41:19;;;;;;;1.80;1.70;;;20.20;55.10;;;;;;6023074;23;20445;-80
2022/07/18 00:43:47;;;;;;;2.53;2.23;;;20.20;56.30;;;;;;6028570;23;20433;-80
2022/07/18 00:46:14;;;;;;;2.80;1.90;;;20.20;56.20;;;;;;6013577;23;20471;-80
2022/07/18 00:48:43;;;;;;;1.90;1.70;;;20.20;57.10;;;;;;6029967;23;20847;-80
2022/07/18 00:51:11;;;;;;;3.77;2.20;;;20.10;56.30;;;;;;6032983;23;20433;-80
2022/07/18 00:53:37;;;;;;;2.50;2.30;;;20.10;56.70;;;;;;6032800;23;20445;-80
2022/07/18 00:56:05;;;;;;;2.20;1.90;;;20.10;57.10;;;;;;6024002;23;20482;-80
2022/07/18 00:58:33;;;;;;;2.40;2.20;;;20.10;58.00;;;;;;6032330;23;20469;-80
2022/07/18 01:03:46;;;;;;;4.27;2.50;;;19.90;57.80;;;;;;6030010;23;20966;-80
2022/07/18 01:06:13;;;;;;;3.60;2.50;;;19.80;58.40;;;;;;6030816;23;20467;-80
2022/07/18 01:08:43;;;;;;;2.60;2.40;;;19.70;58.50;;;;;;6034385;23;20440;-80
2022/07/18 01:11:11;;;;;;;3.03;2.60;;;19.60;58.90;;;;;;6028868;23;20439;-80
2022/07/18 01:13:39;;;;;;;3.43;3.03;;;19.60;59.60;;;;;;6020161;23;20544;-80
2022/07/18 01:16:06;;;;;;;3.30;2.70;;;19.50;59.90;;;;;;6010938;23;20832;-81
2022/07/18 01:18:33;;;;;;;3.93;2.87;;;19.50;60.30;;;;;;6032126;23;20518;-80
2022/07/18 01:21:02;;;;;;;3.10;2.80;;;19.40;60.50;;;;;;6032230;23;20466;-80
2022/07/18 01:23:28;;;;;;;2.80;2.57;;;19.40;61.30;;;;;;6023979;23;20463;-80
2022/07/18 01:25:56;;;;;;;3.53;2.70;;;19.30;61.70;;;;;;6026042;23;21857;-80
2022/07/18 01:28:23;;;;;;;4.17;3.50;;;19.30;62.20;;;;;;6034677;23;20445;-80
2022/07/18 01:30:50;;;;;;;4.90;2.50;;;19.20;62.30;;;;;;6028230;23;20451;-80
2022/07/18 01:33:17;;;;;;;2.90;2.30;;;19.20;61.40;;;;;;6026791;23;20536;-80
2022/07/18 01:35:44;;;;;;;3.73;2.40;;;19.20;61.00;;;;;;6007242;23;20468;-80
2022/07/18 01:38:12;;;;;;;3.20;2.80;;;19.20;61.10;;;;;;6011775;23;20812;-80
2022/07/18 01:40:40;;;;;;;2.43;2.27;;;19.20;60.60;;;;;;6020123;23;20550;-80
2022/07/18 01:43:07;;;;;;;2.90;2.60;;;19.20;61.60;;;;;;6026997;23;20895;-80
2022/07/18 01:45:34;;;;;;;3.10;2.60;;;19.20;61.50;;;;;;6018143;23;20541;-80
2022/07/18 01:48:01;;;;;;;3.63;2.93;;;19.20;61.90;;;;;;6027071;23;20487;-80
2022/07/18 01:50:28;;;;;;;3.07;2.77;;;19.20;63.60;;;;;;6024435;23;20526;-80
2022/07/18 01:52:55;;;;;;;2.70;2.50;;;19.20;63.70;;;;;;6024868;23;20453;-80
2022/07/18 01:55:24;;;;;;;3.40;2.40;;;19.10;62.90;;;;;;6027763;23;20465;-80
2022/07/18 01:57:51;;;;;;;3.20;2.90;;;19.10;62.90;;;;;;6031542;23;20499;-80
2022/07/18 02:00:18;;;;;;;2.90;2.40;;;19.00;62.80;;;;;;6024739;23;20455;-80
2022/07/18 02:02:45;;;;;;;2.50;2.30;;;19.00;63.10;;;;;;6027001;23;20449;-80
2022/07/18 02:05:12;;;;;;;3.43;2.43;;;18.90;63.10;;;;;;6016710;23;20467;-80
2022/07/18 02:07:42;;;;;;;2.57;2.37;;;18.80;64.10;;;;;;6014048;23;20475;-80
2022/07/18 02:10:12;;;;;;;2.50;2.30;;;18.80;63.70;;;;;;6013457;23;20983;-80
2022/07/18 02:12:40;;;;;;;2.70;2.50;;;18.70;64.40;;;;;;6010349;23;20787;-80
2022/07/18 02:15:09;;;;;;;3.07;2.80;;;18.70;64.90;;;;;;6025122;23;20521;-80
2022/07/18 02:17:37;;;;;;;3.13;2.30;;;18.60;65.50;;;;;;6023529;23;21200;-80
2022/07/18 02:20:05;;;;;;;2.83;2.60;;;18.60;66.10;;;;;;6025829;23;20443;-80
2022/07/18 02:22:32;;;;;;;2.47;2.17;;;18.60;66.70;;;;;;6013999;23;21100;-80
2022/07/18 02:24:59;;;;;;;2.50;2.30;;;18.50;66.90;;;;;;6024173;23;20467;-80
2022/07/18 02:27:26;;;;;;;2.83;2.60;;;18.40;66.80;;;;;;6027262;23;20514;-80
2022/07/18 02:29:55;;;;;;;4.37;3.07;;;18.40;66.70;;;;;;6014044;23;20543;-80
2022/07/18 02:32:23;;;;;;;2.73;2.53;;;18.30;67.20;;;;;;6025540;23;20443;-80
2022/07/18 02:34:50;;;;;;;3.53;2.83;;;18.30;67.70;;;;;;6019526;23;20471;-80
2022/07/18 02:37:17;;;;;;;3.30;3.00;;;18.30;68.10;;;;;;6029219;23;20442;-80
2022/07/18 02:39:44;;;;;;;4.13;2.90;;;18.20;68.40;;;;;;6030943;23;20769;-80
2022/07/18 02:42:11;;;;;;;3.30;3.00;;;18.10;68.60;;;;;;6032992;23;20449;-81
2022/07/18 02:44:38;;;;;;;2.90;2.70;;;18.10;69.10;;;;;;6024323;23;20512;-80
2022/07/18 02:47:07;;;;;;;3.27;2.47;;;18.00;69.20;;;;;;6008975;23;20463;-80
2022/07/18 02:49:34;;;;;;;2.70;2.50;;;18.00;69.80;;;;;;6010785;23;20442;-80
2022/07/18 02:52:05;;;;;;;3.30;2.50;;;17.80;70.70;;;;;;6005704;23;20447;-80
2022/07/18 02:54:36;;;;;;;3.13;2.70;;;17.70;71.80;;;;;;6015797;23;20467;-80
2022/07/18 02:57:03;;;;;;;5.30;3.13;;;17.50;72.90;;;;;;6018015;23;20933;-80
2022/07/18 02:59:30;;;;;;;2.83;2.47;;;17.40;73.90;;;;;;6024295;23;20879;-80
2022/07/18 03:01:58;;;;;;;3.63;3.07;;;17.20;74.90;;;;;;6033166;23;20448;-80
2022/07/18 03:04:26;;;;;;;3.80;2.83;;;17.10;76.10;;;;;;6007765;23;20466;-80
2022/07/18 03:06:53;;;;;;;4.50;3.03;;;17.00;77.30;;;;;;6017237;23;20475;-80
2022/07/18 03:09:20;;;;;;;3.13;2.93;;;17.00;79.00;;;;;;6027673;23;20477;-80
2022/07/18 03:11:48;;;;;;;3.23;2.93;;;16.90;80.20;;;;;;6024798;23;20525;-80
2022/07/18 03:14:15;;;;;;;3.57;2.73;;;16.80;81.60;;;;;;6020146;23;20982;-80
2022/07/18 03:16:42;;;;;;;2.97;2.73;;;16.70;82.80;;;;;;6029811;23;20445;-80
2022/07/18 03:19:09;;;;;;;3.43;3.13;;;16.70;83.90;;;;;;6012481;23;20450;-80
2022/07/18 03:21:37;;;;;;;2.57;2.37;;;16.60;84.70;;;;;;6019950;23;20450;-80
2022/07/18 03:24:05;;;;;;;3.10;2.80;;;16.60;85.50;;;;;;6008058;23;20481;-80
2022/07/18 03:26:32;;;;;;;3.27;2.90;;;16.50;86.80;;;;;;6020476;23;20516;-80
2022/07/18 03:28:59;;;;;;;2.83;2.63;;;16.50;89.20;;;;;;6026088;23;20452;-80
2022/07/18 03:31:26;;;;;;;3.50;3.20;;;16.40;90.60;;;;;;6026452;23;20466;-80
2022/07/18 03:33:53;;;;;;;3.43;2.90;;;16.40;91.40;;;;;;6024182;23;20981;-80
2022/07/18 03:36:20;;;;;;;5.20;3.10;;;16.30;92.00;;;;;;6020933;23;20813;-80
2022/07/18 03:38:49;;;;;;;3.00;2.80;;;16.30;92.70;;;;;;6007414;23;20454;-81
2022/07/18 03:41:16;;;;;;;2.63;2.43;;;16.30;93.30;;;;;;6031557;23;20456;-80
2022/07/18 03:43:43;;;;;;;2.60;2.40;;;16.20;93.70;;;;;;6028943;23;20833;-79
2022/07/18 03:46:10;;;;;;;2.90;2.70;;;16.10;94.30;;;;;;6024124;23;20463;-80
2022/07/18 03:48:37;;;;;;;3.40;2.40;;;16.00;94.90;;;;;;6026045;23;20465;-80
2022/07/18 03:51:05;;;;;;;2.80;2.60;;;15.90;95.60;;;;;;6011147;23;20869;-79
2022/07/18 03:53:33;;;;;;;3.13;2.93;;;15.80;96.40;;;;;;6007676;23;20442;-80
2022/07/18 03:56:01;;;;;;;2.97;2.43;;;15.70;96.80;;;;;;6023979;23;20467;-85
2022/07/18 03:58:28;;;;;;;3.17;2.80;;;15.70;97.30;;;;;;6019195;23;20477;-80
2022/07/18 04:00:55;;;;;;;3.03;2.77;;;15.70;97.90;;;;;;6020563;23;20456;-80
2022/07/18 04:03:22;;;;;;;3.00;2.80;;;15.60;98.70;;;;;;6028913;23;20444;-80
2022/07/18 04:05:50;;;;;;;3.30;3.00;;;15.70;99.10;;;;;;6032966;23;20442;-80
2022/07/18 04:08:17;;;;;;;2.83;2.63;;;15.70;99.30;;;;;;6028933;23;20473;-80
2022/07/18 04:10:44;;;;;;;3.10;2.67;;;15.70;99.50;;;;;;6029343;23;20925;-80
2022/07/18 04:13:12;;;;;;;2.97;2.63;;;15.70;99.60;;;;;;6017438;23;20819;-80
2022/07/18 04:15:40;;;;;;;2.93;2.40;;;15.60;99.50;;;;;;6023219;23;20804;-80
2022/07/18 04:18:08;;;;;;;2.73;2.40;;;15.60;99.50;;;;;;6023133;23;20959;-79
2022/07/18 04:20:38;;;;;;;2.70;2.50;;;15.60;99.60;;;;;;6026639;23;20439;-81
2022/07/18 04:23:09;;;;;;;2.93;2.73;;;15.60;99.80;;;;;;6007773;23;20481;-80
2022/07/18 04:25:37;;;;;;;2.93;2.73;;;15.60;99.90;;;;;;6013634;23;20551;-80
2022/07/18 04:28:05;;;;;;;2.70;2.50;;;15.60;99.90;;;;;;6017363;23;20470;-80
2022/07/18 04:30:34;;;;;;;3.10;2.30;;;15.60;99.90;;;;;;6014168;23;20447;-80
2022/07/18 04:33:03;;;;;;;3.67;2.57;;;15.60;99.90;;;;;;6028881;23;20456;-80
2022/07/18 04:35:30;;;;;;;2.50;2.40;;;15.60;99.90;;;;;;6030250;23;20478;-79
2022/07/18 04:37:57;;;;;;;2.60;2.40;;;15.60;99.90;;;;;;6025573;23;20529;-82
2022/07/18 04:40:24;;;;;;;2.83;2.53;;;15.60;99.90;;;;;;6024567;23;20437;-79
2022/07/18 04:42:51;;;;;;;2.73;2.53;;;15.70;99.90;;;;;;6015200;23;20451;-84
2022/07/18 04:45:21;;;;;;;4.00;2.90;;;15.70;99.90;;;;;;6019894;23;20539;-80
2022/07/18 12:46:20;;;;;;;2.30;2.10;;;37.40;32.20;;;;;;6139944;22;1237208;-86
2022/07/18 12:48:47;;;;;;;1.90;1.80;;;36.70;33.00;;;;;;6123518;23;20178;-86
2022/07/18 12:51:14;;;;;;;1.87;1.77;;;36.90;31.90;;;;;;6125745;23;20750;-86
2022/07/18 16:30:06;;;;;;;2.42;2.00;;;35.90;35.10;;;;;;6113506;23;20450;-81
2022/07/18 16:32:33;;;;;;;2.37;2.27;;;35.30;35.20;;;;;;6103391;23;20665;-80
2022/07/18 16:35:00;;;;;;;2.83;2.10;;;35.00;36.70;;;;;;6100634;23;20452;-80
2022/07/18 16:37:27;;;;;;;2.37;2.17;;;34.70;36.90;;;;;;6079219;23;20483;-81
2022/07/18 16:39:54;;;;;;;2.30;2.10;;;34.50;35.80;;;;;;6064009;23;20437;-84
2022/07/18 16:42:22;;;;;;;2.43;2.27;;;34.20;37.60;;;;;;6080511;23;20514;-82
2022/07/18 16:44:49;;;;;;;4.40;2.80;;;34.20;36.60;;;;;;6084872;23;20468;-82
2022/07/18 16:47:19;;;;;;;3.13;2.30;;;34.10;36.20;;;;;;6082390;23;20821;-82
2022/07/18 16:49:46;;;;;;;2.27;2.07;;;33.90;36.30;;;;;;6089758;23;20475;-81
2022/07/18 16:52:14;;;;;;;2.93;2.20;;;33.90;36.80;;;;;;6089341;23;20539;-81
2022/07/18 16:54:41;;;;;;;3.17;2.47;;;33.80;37.70;;;;;;6087927;23;21079;-82
2022/07/18 16:57:09;;;;;;;3.67;2.10;;;33.70;38.50;;;;;;6085504;23;20447;-82
2022/07/18 16:59:37;;;;;;;3.30;2.40;;;33.70;38.30;;;;;;6084418;23;20449;-82
2022/07/18 17:02:09;;;;;;;3.00;2.20;;;33.70;39.10;;;;;;6084368;23;20564;-82
2022/07/18 17:04:38;;;;;;;2.43;2.20;;;33.60;38.70;;;;;;6079959;23;20952;-82
2022/07/18 17:07:06;;;;;;;2.23;2.03;;;33.50;38.20;;;;;;6088856;23;20453;-81
2022/07/18 17:09:34;;;;;;;4.37;2.60;;;33.30;38.30;;;;;;6094049;23;20496;-81
2022/07/18 17:12:01;;;;;;;2.47;2.27;;;33.30;38.00;;;;;;6086919;23;21051;-82
2022/07/18 17:14:29;;;;;;;2.63;2.17;;;33.30;38.80;;;;;;6090930;23;20519;-82
2022/07/18 17:16:58;;;;;;;2.37;2.17;;;33.10;38.50;;;;;;6082463;23;20454;-82
2022/07/18 17:19:26;;;;;;;4.67;2.40;;;33.10;38.50;;;;;;6093592;23;20437;-82
2022/07/18 17:21:55;;;;;;;3.40;2.10;;;32.90;38.80;;;;;;6095503;23;20512;-81
2022/07/18 17:24:23;;;;;;;2.13;1.93;;;32.90;39.20;;;;;;6090584;23;20441;-82
2022/07/18 17:26:50;;;;;;;2.63;2.43;;;32.80;39.40;;;;;;6093621;23;20459;-81
2022/07/18 17:29:18;;;;;;;2.23;2.03;;;32.70;39.20;;;;;;6095081;23;20464;-82
2022/07/18 17:31:45;;;;;;;2.53;2.33;;;32.70;39.50;;;;;;6091715;23;20529;-82
2022/07/18 17:34:13;;;;;;;2.47;2.23;;;32.60;39.50;;;;;;6093694;23;20439;-81
2022/07/18 17:36:41;;;;;;;2.30;2.13;;;32.50;39.80;;;;;;6093857;23;20440;-81
2022/07/18 17:39:10;;;;;;;2.53;2.37;;;32.50;40.00;;;;;;6095300;23;20806;-82
2022/07/18 17:41:37;;;;;;;2.57;2.13;;;32.40;40.20;;;;;;6088271;23;20465;-82
2022/07/18 17:44:05;;;;;;;2.60;2.40;;;32.20;39.70;;;;;;6087577;23;20454;-82
2022/07/18 17:46:33;;;;;;;2.90;2.47;;;32.20;40.30;;;;;;6088281;23;20442;-82
2022/07/18 17:49:00;;;;;;;2.27;2.17;;;32.00;40.20;;;;;;6087774;23;20472;-82
2022/07/18 17:51:28;;;;;;;2.27;2.07;;;32.00;40.40;;;;;;6087766;23;21009;-82
2022/07/18 17:53:55;;;;;;;2.23;2.03;;;31.90;40.70;;;;;;6090016;23;20603;-82
2022/07/18 17:56:24;;;;;;;2.50;2.13;;;31.80;41.00;;;;;;6089186;23;20447;-82
2022/07/18 17:58:51;;;;;;;3.40;2.40;;;31.70;41.10;;;;;;6086514;23;20521;-76
2022/07/18 18:01:18;;;;;;;2.50;2.30;;;31.70;41.40;;;;;;6080914;23;20477;-82
2022/07/18 18:03:46;;;;;;;5.10;2.73;;;31.60;41.30;;;;;;6078146;23;20444;-82
2022/07/18 18:06:13;;;;;;;3.03;2.40;;;31.50;42.10;;;;;;6076822;23;20507;-82
2022/07/18 18:08:41;;;;;;;2.73;2.17;;;31.40;41.80;;;;;;6075912;23;20461;-82
2022/07/18 18:11:08;;;;;;;3.97;2.40;;;31.40;42.00;;;;;;6079832;23;20533;-80
2022/07/18 18:13:36;;;;;;;2.40;2.20;;;31.40;42.10;;;;;;6078194;23;20506;-82
2022/07/18 18:16:04;;;;;;;3.07;2.30;;;31.20;42.30;;;;;;6076708;23;20477;-77
2022/07/18 18:18:32;;;;;;;3.03;2.10;;;31.20;42.10;;;;;;6076173;23;20446;-78
2022/07/18 18:21:00;;;;;;;3.23;2.17;;;31.00;42.00;;;;;;6076586;23;20453;-83
2022/07/18 18:23:27;;;;;;;2.67;1.90;;;31.00;41.90;;;;;;6073305;23;21651;-82
2022/07/18 18:25:54;;;;;;;3.20;2.20;;;30.90;42.40;;;;;;6075777;23;20442;-81
2022/07/18 18:28:21;;;;;;;3.00;2.17;;;30.90;42.60;;;;;;6079123;23;20447;-81
2022/07/18 18:30:50;;;;;;;2.10;1.90;;;30.80;42.80;;;;;;6079949;23;20467;-77
2022/07/18 18:33:16;;;;;;;2.47;2.10;;;30.80;42.70;;;;;;6079665;23;20447;-78
2022/07/18 18:35:44;;;;;;;3.57;2.17;;;30.70;42.40;;;;;;6074611;23;20463;-79
2022/07/18 18:38:11;;;;;;;2.80;2.33;;;30.70;42.40;;;;;;6078866;23;20537;-78
2022/07/18 18:40:39;;;;;;;3.10;2.10;;;30.60;42.70;;;;;;6078580;23;20987;-79
2022/07/18 18:43:07;;;;;;;2.30;2.10;;;30.60;42.60;;;;;;6081441;23;20986;-77
2022/07/18 18:45:34;;;;;;;2.37;2.17;;;30.60;42.80;;;;;;6083083;23;20520;-78
2022/07/18 18:48:03;;;;;;;2.40;2.20;;;30.50;42.70;;;;;;6081014;23;20788;-77
2022/07/18 18:50:30;;;;;;;3.60;2.57;;;30.50;42.90;;;;;;6072711;23;20471;-79
2022/07/18 18:52:57;;;;;;;4.33;2.50;;;30.40;42.90;;;;;;6088090;23;20440;-78
2022/07/18 18:55:24;;;;;;;2.43;2.13;;;30.40;43.20;;;;;;6069919;23;20438;-77
2022/07/18 18:57:51;;;;;;;2.60;2.40;;;30.30;43.20;;;;;;6083786;23;20550;-79
2022/07/18 19:00:20;;;;;;;2.47;2.20;;;30.30;43.10;;;;;;6074218;23;20946;-78
2022/07/18 19:02:49;;;;;;;2.47;2.27;;;30.20;43.20;;;;;;6082156;23;20525;-78
2022/07/18 19:05:19;;;;;;;2.70;2.20;;;30.10;43.60;;;;;;6084627;23;20841;-78
2022/07/18 19:07:46;;;;;;;3.00;2.67;;;30.10;43.40;;;;;;6077112;23;20463;-79
2022/07/18 19:10:13;;;;;;;2.67;2.47;;;30.00;43.40;;;;;;6073318;23;20897;-79
2022/07/18 19:12:41;;;;;;;2.60;2.40;;;29.90;43.70;;;;;;6075323;23;20439;-79
2022/07/18 19:15:09;;;;;;;2.93;2.63;;;29.80;44.70;;;;;;6080226;23;20446;-80
2022/07/18 19:17:36;;;;;;;2.70;2.50;;;29.80;44.60;;;;;;6079142;23;20496;-79
2022/07/18 19:20:04;;;;;;;3.80;2.70;;;29.70;44.60;;;;;;6069334;23;20477;-79
2022/07/18 19:22:32;;;;;;;4.37;2.67;;;29.60;44.80;;;;;;6077579;23;20447;-81
2022/07/18 19:24:59;;;;;;;3.63;2.70;;;29.40;44.70;;;;;;6077038;23;20526;-79
2022/07/18 19:27:27;;;;;;;2.90;2.67;;;29.30;45.00;;;;;;6078916;23;20459;-80
2022/07/18 19:29:54;;;;;;;3.23;2.70;;;29.20;45.10;;;;;;6075832;23;20505;-79
2022/07/18 19:32:21;;;;;;;2.97;2.67;;;29.20;45.00;;;;;;6077081;23;20496;-80
2022/07/18 19:34:48;;;;;;;3.73;2.53;;;29.00;45.10;;;;;;6075366;23;20439;-80
2022/07/18 19:37:15;;;;;;;3.00;2.77;;;29.00;45.20;;;;;;6080514;23;20465;-80
2022/07/18 19:39:43;;;;;;;2.80;2.43;;;28.90;45.10;;;;;;6079484;23;20449;-79
2022/07/18 19:42:10;;;;;;;2.90;2.60;;;28.80;45.20;;;;;;6079225;23;20926;-79
2022/07/18 19:44:37;;;;;;;5.83;2.63;;;28.80;44.90;;;;;;6077413;23;20445;-79
2022/07/18 19:47:04;;;;;;;4.37;2.53;;;28.70;44.80;;;;;;6079882;23;20461;-80
2022/07/18 19:49:32;;;;;;;3.80;2.50;;;28.70;44.80;;;;;;6078829;23;20470;-79
2022/07/18 19:51:58;;;;;;;2.30;2.10;;;28.60;44.80;;;;;;6073103;23;20439;-80
2022/07/18 19:54:25;;;;;;;2.93;2.20;;;28.60;44.90;;;;;;6072275;23;20442;-79
2022/07/18 19:56:54;;;;;;;4.13;2.57;;;28.50;45.00;;;;;;6083348;23;20458;-79
2022/07/18 19:59:21;;;;;;;2.97;2.27;;;28.50;44.90;;;;;;6077643;23;20441;-79
2022/07/18 20:01:48;;;;;;;2.60;2.40;;;28.40;45.10;;;;;;6072148;23;20431;-79
2022/07/18 20:04:15;;;;;;;2.60;2.40;;;28.40;45.20;;;;;;6074349;23;20469;-78
2022/07/18 20:06:42;;;;;;;2.80;2.47;;;28.30;45.10;;;;;;6077169;23;20468;-79
2022/07/18 20:09:09;;;;;;;3.80;3.03;;;28.30;45.30;;;;;;6082785;23;20471;-79
2022/07/18 20:11:37;;;;;;;3.00;2.37;;;28.20;45.30;;;;;;6082076;23;20518;-79
2022/07/18 20:14:05;;;;;;;3.60;2.60;;;28.20;45.10;;;;;;6076465;23;20439;-79
2022/07/18 20:16:32;;;;;;;3.80;2.20;;;28.10;45.20;;;;;;6071534;23;21011;-81
2022/07/18 20:18:59;;;;;;;3.03;2.80;;;28.10;45.10;;;;;;6079182;23;20481;-79
2022/07/18 20:21:27;;;;;;;3.30;2.23;;;28.10;45.20;;;;;;6078544;23;20448;-79
2022/07/18 20:23:54;;;;;;;3.23;2.37;;;28.00;45.20;;;;;;6077781;23;20446;-79
2022/07/18 20:26:21;;;;;;;4.77;2.27;;;28.00;45.10;;;;;;6078825;23;21050;-79
2022/07/18 20:28:48;;;;;;;3.13;2.40;;;28.00;45.10;;;;;;6079175;23;20463;-79
2022/07/18 20:31:16;;;;;;;5.47;2.80;;;27.90;45.20;;;;;;6078234;23;20486;-79
2022/07/18 20:33:43;;;;;;;2.90;2.70;;;27.90;45.30;;;;;;6080812;23;20958;-79
2022/07/18 20:36:10;;;;;;;3.50;3.20;;;27.90;45.20;;;;;;6083865;23;20992;-79
2022/07/18 20:38:37;;;;;;;3.60;3.30;;;27.90;45.30;;;;;;6084985;23;20442;-78
2022/07/18 20:41:05;;;;;;;3.60;3.30;;;27.80;45.40;;;;;;6071993;23;20438;-79
2022/07/18 20:43:44;;;;;;;4.30;3.30;;;27.80;45.40;;;;;;6077050;23;21103;-79
2022/07/18 20:46:12;;;;;;;3.37;2.90;;;27.80;45.60;;;;;;6072120;23;20501;-79
2022/07/18 20:48:40;;;;;;;4.20;2.90;;;27.70;45.70;;;;;;6076649;23;21858;-79
2022/07/18 20:51:07;;;;;;;3.93;2.97;;;27.70;46.00;;;;;;6077147;23;20482;-80
2022/07/18 20:53:34;;;;;;;3.00;2.70;;;27.60;46.20;;;;;;6070757;23;20510;-80
2022/07/18 20:56:01;;;;;;;3.40;3.10;;;27.50;46.20;;;;;;6075540;23;20444;-79
2022/07/18 20:58:28;;;;;;;3.33;3.10;;;27.50;46.20;;;;;;6088756;23;20513;-79
2022/07/18 21:00:55;;;;;;;4.83;2.90;;;27.40;46.50;;;;;;6084875;23;20814;-80
2022/07/18 21:03:22;;;;;;;4.43;2.80;;;27.40;46.60;;;;;;6079545;23;20497;-79
2022/07/18 21:05:51;;;;;;;6.37;2.53;;;27.30;46.80;;;;;;6086362;23;20518;-79
2022/07/18 21:08:18;;;;;;;3.13;2.80;;;27.30;47.20;;;;;;6083234;23;20450;-79
2022/07/18 21:10:45;;;;;;;3.40;2.50;;;27.20;47.10;;;;;;6089261;23;20465;-79
2022/07/18 21:13:12;;;;;;;3.30;2.73;;;27.30;47.50;;;;;;6082137;23;20525;-79
2022/07/18 21:15:40;;;;;;;3.63;2.70;;;27.10;47.80;;;;;;6082427;23;20467;-79
2022/07/18 21:18:07;;;;;;;5.53;3.20;;;27.00;48.60;;;;;;6087486;23;20435;-79
2022/07/18 21:20:34;;;;;;;2.93;2.70;;;26.80;49.20;;;;;;6087278;23;20450;-79
2022/07/18 21:23:03;;;;;;;3.47;3.17;;;26.60;50.30;;;;;;6082363;23;20504;-79
2022/07/18 21:25:30;;;;;;;5.27;3.03;;;26.20;51.60;;;;;;6084266;23;20472;-79
2022/07/18 21:27:57;;;;;;;5.10;3.30;;;25.90;52.40;;;;;;6087843;23;20453;-79
2022/07/18 21:30:24;;;;;;;4.80;3.20;;;25.60;53.40;;;;;;6092110;23;20489;-79
2022/07/18 21:32:52;;;;;;;5.93;3.00;;;25.40;54.30;;;;;;6086817;23;20465;-79
2022/07/18 21:35:20;;;;;;;3.33;2.90;;;25.20;55.00;;;;;;6084963;23;20929;-79
2022/07/18 21:37:49;;;;;;;7.73;3.20;;;25.00;55.90;;;;;;6087802;23;20447;-79
2022/07/18 21:40:17;;;;;;;2.87;2.67;;;24.90;56.50;;;;;;6089842;23;20929;-79
2022/07/18 21:42:45;;;;;;;4.40;2.80;;;24.90;57.10;;;;;;6088280;23;20434;-79
2022/07/18 21:45:13;;;;;;;5.47;2.97;;;24.80;57.30;;;;;;6086523;23;20439;-79
2022/07/18 21:47:40;;;;;;;3.93;3.10;;;24.80;57.80;;;;;;6088601;23;20945;-79
2022/07/18 21:50:08;;;;;;;5.57;3.23;;;24.70;58.00;;;;;;6087127;23;20558;-79
2022/07/18 21:52:35;;;;;;;3.67;3.07;;;24.70;58.20;;;;;;6087142;23;20431;-79
2022/07/18 21:55:03;;;;;;;3.00;2.70;;;24.70;58.50;;;;;;6079497;23;20434;-79
2022/07/18 21:57:32;;;;;;;3.83;3.27;;;24.60;58.50;;;;;;6087982;23;20955;-79
2022/07/18 21:59:59;;;;;;;5.27;3.10;;;24.60;59.00;;;;;;6089556;23;20455;-79
2022/07/18 22:02:26;;;;;;;3.80;3.50;;;24.50;59.40;;;;;;6085002;23;20435;-79
2022/07/18 22:04:53;;;;;;;4.13;3.73;;;24.50;59.70;;;;;;6086100;23;20439;-79
2022/07/18 22:07:20;;;;;;;3.80;3.20;;;24.50;59.90;;;;;;6083186;23;20431;-79
2022/07/18 22:09:47;;;;;;;4.80;3.50;;;24.40;60.00;;;;;;6088261;23;20538;-79
2022/07/18 22:12:14;;;;;;;4.80;3.00;;;24.30;60.80;;;;;;6086513;23;20533;-79
2022/07/18 22:14:43;;;;;;;3.33;3.03;;;24.20;61.00;;;;;;6087640;23;20446;-79
2022/07/18 22:17:10;;;;;;;3.70;3.37;;;24.20;61.50;;;;;;6087131;23;20442;-79
2022/07/18 22:19:37;;;;;;;3.77;3.47;;;24.10;61.80;;;;;;6088791;23;21067;-79
2022/07/18 22:22:04;;;;;;;3.20;3.00;;;24.10;62.10;;;;;;6086502;23;20460;-79
2022/07/18 22:24:31;;;;;;;4.27;3.50;;;24.10;62.20;;;;;;6085446;23;20439;-79
2022/07/18 22:27:01;;;;;;;4.50;3.40;;;24.00;62.40;;;;;;6068768;23;20511;-79
2022/07/18 22:29:28;;;;;;;5.10;3.50;;;24.00;62.70;;;;;;6081726;23;20486;-79
2022/07/18 22:31:56;;;;;;;4.40;3.10;;;24.00;63.20;;;;;;6087660;23;20479;-79
2022/07/18 22:34:23;;;;;;;3.60;3.23;;;23.90;63.60;;;;;;6084618;23;20443;-79
2022/07/18 22:36:50;;;;;;;3.60;3.30;;;23.80;63.90;;;;;;6085101;23;20447;-79
2022/07/18 22:39:18;;;;;;;3.70;3.30;;;23.80;64.40;;;;;;6076498;23;20475;-79
2022/07/18 22:41:45;;;;;;;3.43;3.13;;;23.70;64.80;;;;;;6078384;23;20461;-79
2022/07/18 22:44:12;;;;;;;4.30;3.60;;;23.70;65.40;;;;;;6087720;23;20471;-79
2022/07/18 22:46:39;;;;;;;3.30;3.10;;;23.60;65.50;;;;;;6085997;23;20778;-79
2022/07/18 22:49:08;;;;;;;3.30;3.00;;;23.60;65.90;;;;;;6087221;23;20449;-79
2022/07/18 22:51:35;;;;;;;3.70;3.40;;;23.60;66.40;;;;;;6088506;23;20954;-79
2022/07/18 22:54:02;;;;;;;5.60;3.57;;;23.50;66.60;;;;;;6081448;23;20471;-79
2022/07/18 22:56:29;;;;;;;3.60;3.30;;;23.50;67.00;;;;;;6093653;23;20478;-79
2022/07/18 22:58:56;;;;;;;3.67;3.10;;;23.40;68.20;;;;;;6088723;23;20466;-79
2022/07/18 23:01:23;;;;;;;3.77;3.43;;;23.20;68.00;;;;;;6081157;23;20905;-79
2022/07/18 23:03:50;;;;;;;3.83;3.53;;;23.10;68.70;;;;;;6085823;23;20431;-79
2022/07/18 23:06:18;;;;;;;5.00;3.40;;;22.90;69.40;;;;;;6084137;23;20435;-79
2022/07/18 23:08:45;;;;;;;4.33;2.97;;;22.80;70.00;;;;;;6079511;23;20443;-79
2022/07/18 23:11:13;;;;;;;4.20;3.80;;;22.70;70.30;;;;;;6090392;23;20482;-79
2022/07/18 23:13:39;;;;;;;5.50;3.30;;;22.60;71.00;;;;;;6084561;23;20539;-79
2022/07/18 23:16:07;;;;;;;4.40;3.40;;;22.50;71.60;;;;;;6084152;23;20435;-79
2022/07/18 23:18:34;;;;;;;3.77;3.30;;;22.40;72.30;;;;;;6085891;23;20527;-79
2022/07/18 23:21:01;;;;;;;4.73;3.77;;;22.40;73.00;;;;;;6088840;23;20465;-79
2022/07/18 23:23:30;;;;;;;4.30;3.90;;;22.40;73.80;;;;;;6086446;23;20481;-79
2022/07/18 23:25:57;;;;;;;4.20;3.80;;;22.30;74.30;;;;;;6079428;23;20442;-79
2022/07/18 23:28:24;;;;;;;3.40;3.10;;;22.20;74.90;;;;;;6081197;23;20446;-79
2022/07/18 23:30:52;;;;;;;3.43;3.17;;;22.10;75.60;;;;;;6089565;23;20470;-79
2022/07/18 23:33:19;;;;;;;3.70;3.30;;;22.00;76.20;;;;;;6089382;23;20500;-79
2022/07/18 23:35:46;;;;;;;3.57;3.30;;;22.00;76.90;;;;;;6087717;23;20548;-79
2022/07/18 23:38:13;;;;;;;3.70;3.40;;;21.90;77.60;;;;;;6086429;23;20453;-79
2022/07/18 23:40:41;;;;;;;4.77;4.20;;;21.80;78.80;;;;;;6085192;23;20459;-79
2022/07/18 23:43:08;;;;;;;3.73;3.43;;;21.70;79.60;;;;;;6076965;23;20461;-79
2022/07/18 23:45:35;;;;;;;4.03;3.60;;;21.60;80.50;;;;;;6087367;23;20983;-79
2022/07/18 23:48:02;;;;;;;4.50;4.10;;;21.50;81.30;;;;;;6086693;23;20521;-79
2022/07/18 23:50:29;;;;;;;3.90;3.60;;;21.50;82.20;;;;;;6088354;23;20945;-79
2022/07/18 23:52:56;;;;;;;7.00;3.90;;;21.40;82.70;;;;;;6085394;23;20894;-79
2022/07/18 23:55:23;;;;;;;3.63;3.33;;;21.30;82.90;;;;;;6083115;23;20453;-79
2022/07/18 23:57:52;;;;;;;3.50;3.20;;;21.40;83.20;;;;;;6077728;23;20439;-79
